createdAt,value
2022-10-01T00:02:10.359Z,99798.00
2022-10-01T00:04:39.655Z,99798.00
2022-10-01T00:07:11.024Z,99797.19
2022-10-01T00:09:39.640Z,99798.19
2022-10-01T00:12:08.751Z,99788.56
2022-10-01T00:14:39.420Z,99781.41
2022-10-01T00:17:07.470Z,99783.06
2022-10-01T00:19:35.989Z,99786.41
2022-10-01T00:22:04.502Z,99777.59
2022-10-01T00:24:32.907Z,99783.41
2022-10-01T00:27:01.300Z,99781.53
2022-10-01T00:29:29.623Z,99773.25
2022-10-01T00:31:58.292Z,99776.56
2022-10-01T00:34:26.933Z,99773.91
2022-10-01T00:36:55.279Z,99766.75
2022-10-01T00:39:24.369Z,99771.06
2022-10-01T00:41:52.678Z,99774.38
2022-10-01T00:44:35.287Z,99773.19
2022-10-01T00:51:36.669Z,99771.84
2022-10-01T00:54:14.083Z,99770.81
2022-10-01T00:56:43.798Z,99765.19
2022-10-01T00:59:13.554Z,99766.31
2022-10-01T01:01:42.178Z,99763.31
2022-10-01T01:04:16.723Z,99758.28
2022-10-01T01:07:05.605Z,99755.44
2022-10-01T01:09:38.654Z,99766.56
2022-10-01T01:12:26.009Z,99766.38
2022-10-01T01:15:17.835Z,99759.91
2022-10-01T01:18:12.320Z,99763.34
2022-10-01T01:21:13.379Z,99764.38
2022-10-01T01:24:01.950Z,99756.22
2022-10-01T01:26:42.368Z,99754.38
2022-10-01T01:29:21.060Z,99750.06
2022-10-01T01:31:50.307Z,99750.75
2022-10-01T01:34:27.020Z,99749.72
2022-10-01T01:37:04.752Z,99741.75
2022-10-01T01:39:34.415Z,99739.09
2022-10-01T01:42:10.760Z,99735.44
2022-10-01T01:44:44.118Z,99725.63
2022-10-01T01:47:13.961Z,99722.97
2022-10-01T01:49:44.198Z,99722.81
2022-10-01T01:52:17.454Z,99720.16
2022-10-01T01:54:48.011Z,99721.97
2022-10-01T01:57:19.409Z,99725.28
2022-10-01T01:59:47.728Z,99721.97
2022-10-01T02:02:28.948Z,99723.44
2022-10-01T02:05:16.422Z,99706.66
2022-10-01T02:08:03.146Z,99719.78
2022-10-01T02:11:03.142Z,99721.63
2022-10-01T02:13:54.835Z,99716.47
2022-10-01T02:17:03.753Z,99720.59
2022-10-01T02:19:47.017Z,99718.97
2022-10-01T02:22:50.947Z,99717.28
2022-10-01T02:25:27.057Z,99708.31
2022-10-01T02:28:07.708Z,99708.13
2022-10-01T02:30:38.239Z,99721.91
2022-10-01T02:33:09.788Z,99714.75
2022-10-01T02:35:40.162Z,99717.41
2022-10-01T02:38:09.394Z,99705.59
2022-10-01T02:40:42.849Z,99699.09
2022-10-01T02:43:18.130Z,99694.22
2022-10-01T02:45:52.745Z,99700.22
2022-10-01T02:48:21.225Z,99696.53
2022-10-01T02:50:54.791Z,99688.03
2022-10-01T02:53:37.671Z,99700.94
2022-10-01T02:56:07.113Z,99686.47
2022-10-01T02:58:35.421Z,99692.25
2022-10-01T03:01:03.766Z,99692.91
2022-10-01T03:03:32.458Z,99685.94
2022-10-01T03:06:00.879Z,99679.41
2022-10-01T03:08:29.434Z,99675.75
2022-10-01T03:10:57.954Z,99673.94
2022-10-01T03:13:27.189Z,99675.56
2022-10-01T03:15:55.964Z,99669.91
2022-10-01T03:18:24.434Z,99662.72
2022-10-01T03:20:52.585Z,99667.25
2022-10-01T03:23:20.571Z,99665.59
2022-10-01T03:25:48.961Z,99664.75
2022-10-01T03:28:17.108Z,99658.13
2022-10-01T03:30:45.649Z,99654.66
2022-10-01T03:33:14.058Z,99655.47
2022-10-01T03:35:42.416Z,99645.88
2022-10-01T03:38:10.866Z,99641.34
2022-10-01T03:40:39.261Z,99648.34
2022-10-01T03:43:07.365Z,99646.69
2022-10-01T03:45:35.963Z,99640.34
2022-10-01T03:48:04.036Z,99640.34
2022-10-01T03:50:32.035Z,99641.19
2022-10-01T03:53:00.216Z,99639.00
2022-10-01T03:55:28.425Z,99640.66
2022-10-01T03:57:57.210Z,99646.59
2022-10-01T04:00:26.166Z,99640.44
2022-10-01T04:02:54.766Z,99629.28
2022-10-01T04:05:25.681Z,99628.06
2022-10-01T04:07:54.077Z,99630.38
2022-10-01T04:10:22.134Z,99623.84
2022-10-01T04:12:50.201Z,99618.72
2022-10-01T04:15:18.202Z,99617.53
2022-10-01T04:17:46.285Z,99620.81
2022-10-01T04:20:14.292Z,99626.78
2022-10-01T04:22:44.678Z,99628.44
2022-10-01T04:25:14.225Z,99616.16
2022-10-01T04:27:43.830Z,99611.47
2022-10-01T04:30:12.361Z,99609.63
2022-10-01T04:32:40.414Z,99609.81
2022-10-01T04:35:08.974Z,99606.97
2022-10-01T04:37:37.541Z,99607.81
2022-10-01T04:40:06.816Z,99601.28
2022-10-01T04:42:35.580Z,99603.56
2022-10-01T04:45:03.598Z,99607.50
2022-10-01T04:47:35.618Z,99600.38
2022-10-01T04:50:06.289Z,99595.66
2022-10-01T04:52:34.673Z,99593.47
2022-10-01T04:55:02.797Z,99598.63
2022-10-01T04:57:30.909Z,99597.44
2022-10-01T04:59:58.868Z,99610.53
2022-10-01T05:02:27.076Z,99602.00
2022-10-01T05:04:56.128Z,99610.81
2022-10-01T05:07:24.164Z,99605.50
2022-10-01T05:09:52.499Z,99603.28
2022-10-01T05:12:24.469Z,99601.25
2022-10-01T05:14:54.307Z,99606.59
2022-10-01T05:17:23.508Z,99603.09
2022-10-01T05:19:52.175Z,99600.25
2022-10-01T05:22:20.416Z,99588.56
2022-10-01T05:24:48.819Z,99591.91
2022-10-01T05:27:17.236Z,99586.81
2022-10-01T05:29:45.917Z,99584.78
2022-10-01T05:32:14.567Z,99576.44
2022-10-01T05:34:42.593Z,99584.22
2022-10-01T05:37:12.016Z,99566.88
2022-10-01T05:39:40.004Z,99565.88
2022-10-01T05:42:08.005Z,99565.28
2022-10-01T05:44:37.853Z,99562.22
2022-10-01T05:47:07.035Z,99565.16
2022-10-01T05:49:35.833Z,99560.06
2022-10-01T05:52:04.705Z,99563.19
2022-10-01T05:54:32.651Z,99557.47
2022-10-01T05:57:00.642Z,99553.59
2022-10-01T05:59:31.844Z,99547.09
2022-10-01T06:02:00.760Z,99546.88
2022-10-01T06:04:28.978Z,99538.72
2022-10-01T06:06:57.674Z,99539.50
2022-10-01T06:09:25.789Z,99534.00
2022-10-01T06:11:54.264Z,99538.31
2022-10-01T06:14:22.579Z,99527.44
2022-10-01T06:16:55.878Z,99523.56
2022-10-01T06:19:23.903Z,99527.91
2022-10-01T06:21:52.615Z,99516.03
2022-10-01T06:24:21.076Z,99515.00
2022-10-01T06:26:49.531Z,99512.78
2022-10-01T06:29:17.920Z,99505.41
2022-10-01T06:31:46.229Z,99515.06
2022-10-01T06:34:14.230Z,99507.28
2022-10-01T06:36:42.211Z,99504.00
2022-10-01T06:39:10.204Z,99501.16
2022-10-01T06:41:38.550Z,99499.13
2022-10-01T06:44:06.577Z,99488.06
2022-10-01T06:46:34.740Z,99488.31
2022-10-01T06:49:02.706Z,99483.41
2022-10-01T06:51:48.483Z,99481.16
2022-10-01T06:54:18.383Z,99480.59
2022-10-01T06:56:46.451Z,99480.19
2022-10-01T06:59:14.416Z,99474.28
2022-10-01T07:01:42.866Z,99472.03
2022-10-01T07:04:10.911Z,99465.47
2022-10-01T07:06:38.830Z,99474.53
2022-10-01T07:09:07.354Z,99472.28
2022-10-01T07:11:41.460Z,99460.00
2022-10-01T07:14:10.285Z,99468.44
2022-10-01T07:16:41.385Z,99455.53
2022-10-01T07:19:09.457Z,99450.00
2022-10-01T07:21:38.025Z,99449.78
2022-10-01T07:24:06.860Z,99446.34
2022-10-01T07:26:34.886Z,99451.28
2022-10-01T07:29:03.270Z,99443.91
2022-10-01T07:31:31.290Z,99447.41
2022-10-01T07:33:59.505Z,99443.09
2022-10-01T07:36:28.094Z,99447.00
2022-10-01T07:38:56.427Z,99437.56
2022-10-01T07:41:24.395Z,99434.88
2022-10-01T07:43:52.854Z,99433.88
2022-10-01T07:46:22.379Z,99431.41
2022-10-01T07:48:51.150Z,99441.06
2022-10-01T07:51:19.605Z,99431.41
2022-10-01T07:53:47.974Z,99422.56
2022-10-01T07:56:16.320Z,99419.66
2022-10-01T07:58:44.786Z,99426.41
2022-10-01T08:01:12.774Z,99412.84
2022-10-01T08:03:40.890Z,99415.50
2022-10-01T08:06:12.141Z,99410.56
2022-10-01T08:08:40.472Z,99411.81
2022-10-01T08:11:10.359Z,99401.13
2022-10-01T08:13:38.751Z,99398.47
2022-10-01T08:16:09.807Z,99398.66
2022-10-01T08:18:38.201Z,99398.88
2022-10-01T08:21:07.108Z,99389.03
2022-10-01T08:23:35.557Z,99378.56
2022-10-01T08:26:08.389Z,99377.31
2022-10-01T08:28:37.054Z,99374.22
2022-10-01T08:31:09.966Z,99369.94
2022-10-01T08:33:39.937Z,99367.69
2022-10-01T08:36:09.154Z,99356.19
2022-10-01T08:38:40.186Z,99352.72
2022-10-01T08:41:46.055Z,99337.53
2022-10-01T08:44:27.880Z,99342.47
2022-10-01T08:47:01.747Z,99328.91
2022-10-01T08:49:38.829Z,99328.91
2022-10-01T08:52:14.659Z,99315.00
2022-10-01T08:54:53.391Z,99314.38
2022-10-01T08:57:33.212Z,99311.13
2022-10-01T09:00:07.849Z,99316.47
2022-10-01T09:02:41.007Z,99301.88
2022-10-01T09:05:15.286Z,99303.34
2022-10-01T09:07:55.421Z,99306.22
2022-10-01T09:10:51.293Z,99305.19
2022-10-01T09:13:53.150Z,99308.69
2022-10-01T09:16:39.481Z,99308.69
2022-10-01T09:19:42.799Z,99313.59
2022-10-01T09:22:33.024Z,99309.47
2022-10-01T09:25:24.449Z,99312.38
2022-10-01T09:27:59.625Z,99308.88
2022-10-01T09:30:29.142Z,99310.28
2022-10-01T09:33:13.931Z,99305.78
2022-10-01T09:35:51.648Z,99299.44
2022-10-01T09:38:39.980Z,99310.66
2022-10-01T09:41:10.561Z,99306.97
2022-10-01T09:43:41.228Z,99310.03
2022-10-01T09:46:13.618Z,99307.97
2022-10-01T09:48:56.518Z,99311.69
2022-10-01T09:51:40.072Z,99308.38
2022-10-01T09:54:27.043Z,99312.28
2022-10-01T09:57:12.093Z,99311.06
2022-10-01T10:00:11.320Z,99318.88
2022-10-01T10:02:47.570Z,99315.16
2022-10-01T10:05:26.329Z,99320.47
2022-10-01T10:08:11.397Z,99326.88
2022-10-01T10:10:41.298Z,99316.19
2022-10-01T10:13:13.576Z,99334.03
2022-10-01T10:15:52.470Z,99328.47
2022-10-01T10:18:35.922Z,99319.69
2022-10-01T10:21:09.111Z,99325.38
2022-10-01T10:24:07.611Z,99321.91
2022-10-01T10:26:42.478Z,99318.00
2022-10-01T10:29:31.872Z,99319.84
2022-10-01T10:32:05.374Z,99321.91
2022-10-01T10:34:39.988Z,99315.75
2022-10-01T10:37:28.751Z,99317.41
2022-10-01T10:39:57.274Z,99310.41
2022-10-01T10:42:26.041Z,99307.94
2022-10-01T10:44:58.230Z,99307.09
2022-10-01T10:47:28.416Z,99304.66
2022-10-01T10:50:01.391Z,99304.66
2022-10-01T10:52:36.486Z,99308.97
2022-10-01T10:55:28.302Z,99296.66
2022-10-01T10:57:57.998Z,99295.00
2022-10-01T11:00:29.738Z,99285.38
2022-10-01T11:03:06.466Z,99290.31
2022-10-01T11:05:42.363Z,99285.41
2022-10-01T11:08:20.821Z,99281.09
2022-10-01T11:11:00.378Z,99276.59
2022-10-01T11:13:36.381Z,99279.47
2022-10-01T11:16:19.343Z,99273.13
2022-10-01T11:19:08.778Z,99272.72
2022-10-01T11:21:56.201Z,99269.81
2022-10-01T11:24:54.891Z,99270.03
2022-10-01T11:27:42.090Z,99274.78
2022-10-01T11:30:15.669Z,99263.69
2022-10-01T11:33:05.087Z,99266.38
2022-10-01T11:35:51.000Z,99265.16
2022-10-01T11:38:37.974Z,99272.75
2022-10-01T11:41:21.727Z,99270.91
2022-10-01T11:44:22.181Z,99263.94
2022-10-01T11:47:12.719Z,99273.16
2022-10-01T11:50:03.168Z,99264.13
2022-10-01T11:52:37.413Z,99262.06
2022-10-01T11:55:40.245Z,99254.69
2022-10-01T11:58:53.169Z,99253.66
2022-10-01T12:01:43.434Z,99256.31
2022-10-01T12:04:34.808Z,99259.00
2022-10-01T12:07:27.982Z,99262.50
2022-10-01T12:10:08.045Z,99253.44
2022-10-01T12:12:59.433Z,99257.34
2022-10-01T12:15:50.601Z,99247.50
2022-10-01T12:19:08.370Z,99253.66
2022-10-01T12:21:52.942Z,99248.72
2022-10-01T12:24:32.449Z,99249.91
2022-10-01T12:27:48.546Z,99262.06
2022-10-01T12:30:38.286Z,99262.66
2022-10-01T12:33:06.737Z,99253.63
2022-10-01T12:35:58.823Z,99266.16
2022-10-01T12:39:06.329Z,99252.38
2022-10-01T12:41:57.761Z,99255.25
2022-10-01T12:44:47.149Z,99257.09
2022-10-01T12:47:15.987Z,99249.69
2022-10-01T12:49:58.640Z,99244.13
2022-10-01T12:52:54.423Z,99248.84
2022-10-01T12:55:57.124Z,99263.00
2022-10-01T12:59:00.197Z,99258.66
2022-10-01T13:01:42.209Z,99261.56
2022-10-01T13:04:38.494Z,99278.75
2022-10-01T13:07:31.772Z,99267.28
2022-10-01T13:11:02.472Z,99269.53
2022-10-01T13:13:33.633Z,99269.53
2022-10-01T13:16:29.750Z,99269.72
2022-10-01T13:19:18.489Z,99273.25
2022-10-01T13:22:16.375Z,99272.00
2022-10-01T13:24:47.019Z,99268.75
2022-10-01T13:27:25.086Z,99277.34
2022-10-01T13:30:07.716Z,99274.50
2022-10-01T13:32:52.770Z,99273.25
2022-10-01T13:35:35.482Z,99274.06
2022-10-01T13:38:29.347Z,99281.22
2022-10-01T13:41:03.840Z,99280.41
2022-10-01T13:43:36.513Z,99280.41
2022-10-01T13:46:11.588Z,99285.16
2022-10-01T13:48:48.703Z,99282.25
2022-10-01T13:51:17.634Z,99286.16
2022-10-01T13:53:50.118Z,99281.41
2022-10-01T13:56:37.642Z,99283.84
2022-10-01T13:59:28.866Z,99289.19
2022-10-01T14:01:57.504Z,99282.59
2022-10-01T14:04:48.252Z,99297.56
2022-10-01T14:07:22.742Z,99289.94
2022-10-01T14:09:59.288Z,99281.09
2022-10-01T14:12:56.928Z,99288.25
2022-10-01T14:15:49.085Z,99283.91
2022-10-01T14:18:37.798Z,99290.44
2022-10-01T14:21:25.847Z,99294.34
2022-10-01T14:24:06.766Z,99295.53
2022-10-01T14:27:15.193Z,99282.94
2022-10-01T14:30:05.240Z,99288.66
2022-10-01T14:33:46.357Z,99296.69
2022-10-01T14:36:31.066Z,99289.06
2022-10-01T14:39:20.454Z,99286.22
2022-10-01T14:41:51.725Z,99292.44
2022-10-01T14:44:47.262Z,99296.31
2022-10-01T14:47:18.603Z,99296.75
2022-10-01T14:49:47.821Z,99313.56
2022-10-01T14:52:33.631Z,99297.97
2022-10-01T14:55:08.542Z,99306.81
2022-10-01T14:57:46.460Z,99302.06
2022-10-01T15:00:24.154Z,99304.69
2022-10-01T15:03:04.807Z,99303.06
2022-10-01T15:05:36.062Z,99303.44
2022-10-01T15:08:20.607Z,99307.13
2022-10-01T15:11:16.177Z,99309.56
2022-10-01T15:13:47.017Z,99297.59
2022-10-01T15:16:22.201Z,99301.31
2022-10-01T15:18:56.665Z,99305.47
2022-10-01T15:21:40.917Z,99306.34
2022-10-01T15:24:23.459Z,99317.66
2022-10-01T15:26:53.897Z,99309.09
2022-10-01T15:29:22.355Z,99315.69
2022-10-01T15:31:53.195Z,99306.44
2022-10-01T15:34:23.998Z,99307.75
2022-10-01T15:36:52.783Z,99315.97
2022-10-01T15:39:51.849Z,99316.41
2022-10-01T15:42:36.899Z,99315.41
2022-10-01T15:45:11.472Z,99327.13
2022-10-01T15:47:52.509Z,99332.06
2022-10-01T15:50:24.496Z,99334.97
2022-10-01T15:53:06.836Z,99336.44
2022-10-01T15:55:37.164Z,99343.84
2022-10-01T15:58:08.879Z,99338.69
2022-10-01T16:01:10.558Z,99346.72
2022-10-01T16:03:55.992Z,99337.00
2022-10-01T16:06:54.715Z,99347.53
2022-10-01T16:09:29.799Z,99352.47
2022-10-01T16:12:21.475Z,99351.88
2022-10-01T16:15:02.405Z,99357.00
2022-10-01T16:18:02.465Z,99345.28
2022-10-01T16:20:38.227Z,99341.53
2022-10-01T16:23:47.890Z,99338.88
2022-10-01T16:26:38.321Z,99351.03
2022-10-01T16:29:19.570Z,99355.97
2022-10-01T16:31:48.335Z,99353.28
2022-10-01T16:34:19.924Z,99346.09
2022-10-01T16:36:48.698Z,99356.56
2022-10-01T16:39:17.171Z,99355.75
2022-10-01T16:42:01.688Z,99357.59
2022-10-01T16:44:39.815Z,99371.59
2022-10-01T16:47:08.438Z,99375.94
2022-10-01T16:49:37.077Z,99369.31
2022-10-01T16:52:06.298Z,99377.53
2022-10-01T16:54:37.770Z,99375.09
2022-10-01T16:57:11.797Z,99386.81
2022-10-01T16:59:40.453Z,99395.06
2022-10-01T17:02:15.889Z,99397.09
2022-10-01T17:04:44.650Z,99406.75
2022-10-01T17:07:13.135Z,99396.25
2022-10-01T17:09:41.994Z,99403.44
2022-10-01T17:12:11.164Z,99411.28
2022-10-01T17:14:39.790Z,99413.34
2022-10-01T17:17:08.184Z,99413.34
2022-10-01T17:19:36.699Z,99423.00
2022-10-01T17:22:05.358Z,99422.16
2022-10-01T17:24:33.734Z,99424.84
2022-10-01T17:27:02.306Z,99431.84
2022-10-01T17:29:32.392Z,99433.25
2022-10-01T17:32:01.212Z,99442.97
2022-10-01T17:34:29.851Z,99436.59
2022-10-01T17:36:59.918Z,99440.28
2022-10-01T17:39:28.770Z,99446.47
2022-10-01T17:41:57.461Z,99448.31
2022-10-01T17:44:26.041Z,99449.16
2022-10-01T17:46:54.794Z,99458.00
2022-10-01T17:49:23.351Z,99457.16
2022-10-01T17:51:53.365Z,99469.72
2022-10-01T17:54:22.297Z,99467.19
2022-10-01T17:56:55.019Z,99475.22
2022-10-01T17:59:23.825Z,99473.78
2022-10-01T18:01:53.460Z,99477.50
2022-10-01T18:04:22.024Z,99479.78
2022-10-01T18:06:52.336Z,99482.88
2022-10-01T18:09:21.053Z,99482.47
2022-10-01T18:11:49.971Z,99485.53
2022-10-01T18:14:18.742Z,99491.31
2022-10-01T18:16:47.738Z,99495.41
2022-10-01T18:19:52.942Z,99504.44
2022-10-01T18:22:13.326Z,99498.69
2022-10-01T18:24:43.598Z,99500.34
2022-10-01T18:27:12.130Z,99505.09
2022-10-01T18:29:40.607Z,99507.75
2022-10-01T18:32:25.433Z,99514.53
2022-10-01T18:34:57.994Z,99514.94
2022-10-01T18:37:35.954Z,99514.53
2022-10-01T18:40:17.830Z,99511.22
2022-10-01T18:42:56.064Z,99525.00
2022-10-01T18:45:53.380Z,99530.16
2022-10-01T18:48:24.665Z,99535.50
2022-10-01T18:51:07.436Z,99533.03
2022-10-01T18:54:03.427Z,99540.84
2022-10-01T18:56:39.790Z,99528.91
2022-10-01T18:59:30.897Z,99548.47
2022-10-01T19:02:50.243Z,99557.91
2022-10-01T19:06:00.878Z,99568.59
2022-10-01T19:08:49.384Z,99561.59
2022-10-01T19:11:37.035Z,99565.75
2022-10-01T19:14:23.917Z,99570.25
2022-10-01T19:17:20.149Z,99570.25
2022-10-01T19:19:54.044Z,99583.22
2022-10-01T19:22:48.090Z,99586.06
2022-10-01T19:25:39.124Z,99590.41
2022-10-01T19:28:25.459Z,99591.44
2022-10-01T19:31:14.473Z,99600.09
2022-10-01T19:33:53.155Z,99604.78
2022-10-01T19:36:39.977Z,99603.16
2022-10-01T19:39:19.380Z,99613.22
2022-10-01T19:42:01.484Z,99613.63
2022-10-01T19:44:39.674Z,99615.03
2022-10-01T19:47:44.104Z,99622.66
2022-10-01T19:50:24.356Z,99613.41
2022-10-01T19:52:57.275Z,99620.00
2022-10-01T19:55:37.784Z,99621.63
2022-10-01T19:58:21.754Z,99629.84
2022-10-01T20:00:57.258Z,99644.41
2022-10-01T20:03:42.236Z,99650.38
2022-10-01T20:06:33.896Z,99653.84
2022-10-01T20:09:26.798Z,99658.56
2022-10-01T20:12:23.953Z,99666.97
2022-10-01T20:15:09.939Z,99672.94
2022-10-01T20:18:08.092Z,99677.63
2022-10-01T20:20:46.535Z,99688.31
2022-10-01T20:23:39.377Z,99690.38
2022-10-01T20:26:32.678Z,99690.13
2022-10-01T20:29:40.065Z,99697.94
2022-10-01T20:32:34.958Z,99706.13
2022-10-01T20:35:26.532Z,99706.91
2022-10-01T20:38:35.827Z,99716.16
2022-10-01T20:41:15.063Z,99726.63
2022-10-01T20:43:57.669Z,99721.66
2022-10-01T20:46:49.799Z,99728.41
2022-10-01T20:49:38.559Z,99732.31
2022-10-01T20:52:39.468Z,99735.38
2022-10-01T20:55:18.273Z,99741.28
2022-10-01T20:57:59.905Z,99752.13
2022-10-01T21:00:31.266Z,99745.75
2022-10-01T21:03:25.244Z,99746.97
2022-10-01T21:06:00.934Z,99753.91
2022-10-01T21:08:48.900Z,99760.66
2022-10-01T21:11:51.178Z,99760.19
2022-10-01T21:14:37.687Z,99772.94
2022-10-01T21:17:30.350Z,99774.94
2022-10-01T21:20:10.247Z,99782.13
2022-10-01T21:22:42.859Z,99786.84
2022-10-01T21:25:43.378Z,99779.84
2022-10-01T21:28:20.126Z,99782.03
2022-10-01T21:31:09.364Z,99792.91
2022-10-01T21:33:54.248Z,99796.56
2022-10-01T21:36:39.246Z,99804.78
2022-10-01T21:39:19.705Z,99806.81
2022-10-01T21:42:16.778Z,99815.00
2022-10-01T21:45:54.726Z,99823.19
2022-10-01T21:48:38.577Z,99819.91
2022-10-01T21:51:45.193Z,99827.69
2022-10-01T21:54:28.093Z,99827.69
2022-10-01T21:57:10.920Z,99834.06
2022-10-01T22:00:12.214Z,99847.66
2022-10-01T22:03:19.176Z,99849.94
2022-10-01T22:05:56.327Z,99862.53
2022-10-01T22:08:49.465Z,99848.66
2022-10-01T22:11:23.820Z,99864.91
2022-10-01T22:14:13.984Z,99868.00
2022-10-01T22:17:10.076Z,99865.16
2022-10-01T22:19:43.005Z,99874.81
2022-10-01T22:22:39.918Z,99883.63
2022-10-01T22:25:09.919Z,99888.81
2022-10-01T22:27:48.216Z,99874.81
2022-10-01T22:30:22.408Z,99896.16
2022-10-01T22:32:52.495Z,99893.69
2022-10-01T22:36:08.745Z,99885.69
2022-10-01T22:38:47.029Z,99906.41
2022-10-01T22:41:37.520Z,99898.75
2022-10-01T22:44:21.535Z,99905.13
2022-10-01T22:47:30.136Z,99900.81
2022-10-01T22:50:34.509Z,99900.81
2022-10-01T22:53:20.552Z,99905.13
2022-10-01T22:55:57.276Z,99913.31
2022-10-01T22:59:11.838Z,99911.47
2022-10-01T23:02:06.263Z,99923.16
2022-10-01T23:05:20.471Z,99920.69
2022-10-01T23:08:13.222Z,99924.19
2022-10-01T23:11:07.679Z,99938.53
2022-10-01T23:14:16.463Z,99938.53
2022-10-01T23:16:57.587Z,99940.38
2022-10-01T23:19:47.073Z,99959.25
2022-10-01T23:22:15.371Z,99961.09
2022-10-01T23:25:18.939Z,99965.78
2022-10-01T23:28:16.177Z,99961.59
2022-10-01T23:31:00.363Z,99953.97
2022-10-01T23:33:56.119Z,99956.66
2022-10-01T23:36:50.438Z,99965.66
2022-10-01T23:39:56.697Z,99968.16
2022-10-01T23:42:47.815Z,99968.53
2022-10-01T23:45:41.803Z,99971.38
2022-10-01T23:48:39.186Z,99976.72
2022-10-01T23:51:22.875Z,99989.41
2022-10-01T23:54:02.450Z,100002.13
2022-10-01T23:56:49.356Z,99997.59
2022-10-01T23:59:33.536Z,100005.78
